createdAt,value
2023-04-16T00:00:29.458Z,77.80
2023-04-16T00:02:56.805Z,77.80
2023-04-16T00:05:24.042Z,77.80
2023-04-16T00:07:51.986Z,77.80
2023-04-16T00:10:19.172Z,77.80
2023-04-16T00:12:46.346Z,77.80
2023-04-16T00:15:13.449Z,77.70
2023-04-16T00:17:40.584Z,77.70
2023-04-16T00:20:09.200Z,77.70
2023-04-16T00:22:36.696Z,77.60
2023-04-16T00:25:04.258Z,77.60
2023-04-16T00:27:31.288Z,77.60
2023-04-16T00:29:58.336Z,77.60
2023-04-16T00:32:25.607Z,77.50
2023-04-16T00:34:52.689Z,77.50
2023-04-16T00:37:19.822Z,77.40
2023-04-16T00:39:46.893Z,77.30
2023-04-16T00:42:14.008Z,77.30
2023-04-16T00:47:21.890Z,77.30
2023-04-16T00:49:49.403Z,77.30
2023-04-16T00:52:16.485Z,77.30
2023-04-16T00:54:43.685Z,77.30
2023-04-16T00:57:11.183Z,77.40
2023-04-16T00:59:42.045Z,77.40
2023-04-16T01:02:09.265Z,77.40
2023-04-16T01:04:36.687Z,77.50
2023-04-16T01:07:03.907Z,77.50
2023-04-16T01:09:31.057Z,77.60
2023-04-16T01:11:58.098Z,77.70
2023-04-16T01:14:25.222Z,77.70
2023-04-16T01:16:52.292Z,77.70
2023-04-16T01:19:19.360Z,77.80
2023-04-16T01:21:46.819Z,77.80
2023-04-16T01:24:13.941Z,77.90
2023-04-16T01:26:41.500Z,77.90
2023-04-16T01:29:08.910Z,77.90
2023-04-16T01:31:36.470Z,77.90
2023-04-16T01:34:03.756Z,77.90
2023-04-16T01:36:30.911Z,78.00
2023-04-16T01:38:58.209Z,78.00
2023-04-16T01:41:25.491Z,78.00
2023-04-16T01:43:52.619Z,78.00
2023-04-16T01:46:27.543Z,78.20
2023-04-16T01:48:55.509Z,78.20
2023-04-16T01:51:22.806Z,78.20
2023-04-16T01:53:50.699Z,78.20
2023-04-16T01:56:17.889Z,78.20
2023-04-16T01:58:46.217Z,78.10
2023-04-16T02:01:14.084Z,78.00
2023-04-16T02:03:41.732Z,78.10
2023-04-16T02:06:09.044Z,78.00
2023-04-16T02:08:36.365Z,78.00
2023-04-16T02:11:03.598Z,78.00
2023-04-16T02:13:30.754Z,78.00
2023-04-16T02:15:57.980Z,78.00
2023-04-16T02:18:25.097Z,78.00
2023-04-16T02:20:52.252Z,77.90
2023-04-16T02:23:19.336Z,77.90
2023-04-16T02:25:47.719Z,77.90
2023-04-16T02:28:17.179Z,77.90
2023-04-16T02:30:44.694Z,77.90
2023-04-16T02:33:13.012Z,77.90
2023-04-16T02:35:40.884Z,78.00
2023-04-16T02:38:08.623Z,77.90
2023-04-16T02:40:35.963Z,77.90
2023-04-16T02:43:03.159Z,78.10
2023-04-16T02:45:31.760Z,78.00
2023-04-16T02:47:59.996Z,78.00
2023-04-16T02:50:27.250Z,78.20
2023-04-16T02:52:54.402Z,78.20
2023-04-16T02:55:21.542Z,78.20
2023-04-16T02:57:48.747Z,78.20
2023-04-16T03:00:16.064Z,78.20
2023-04-16T03:02:43.268Z,78.20
2023-04-16T03:05:10.712Z,78.20
2023-04-16T03:07:39.288Z,78.20
2023-04-16T03:10:07.829Z,78.20
2023-04-16T03:12:36.127Z,78.30
2023-04-16T03:15:03.630Z,78.30
2023-04-16T03:17:30.844Z,78.30
2023-04-16T03:19:57.991Z,78.30
2023-04-16T03:22:25.185Z,78.30
2023-04-16T03:24:52.324Z,78.40
2023-04-16T03:27:19.382Z,78.40
2023-04-16T03:29:46.490Z,78.50
2023-04-16T03:32:13.632Z,78.50
2023-04-16T03:34:41.002Z,78.50
2023-04-16T03:37:11.989Z,78.50
2023-04-16T03:39:39.306Z,78.50
2023-04-16T03:42:06.635Z,78.40
2023-04-16T03:44:33.966Z,78.50
2023-04-16T03:47:01.110Z,78.50
2023-04-16T03:49:28.239Z,78.50
2023-04-16T03:51:55.451Z,78.40
2023-04-16T03:54:23.000Z,78.50
2023-04-16T03:56:50.426Z,78.50
2023-04-16T03:59:17.756Z,78.40
2023-04-16T04:01:44.839Z,78.40
2023-04-16T04:04:12.148Z,78.40
2023-04-16T04:06:39.261Z,78.50
2023-04-16T04:09:06.429Z,78.40
2023-04-16T04:11:33.628Z,78.40
2023-04-16T04:14:00.757Z,78.40
2023-04-16T04:16:27.951Z,78.40
2023-04-16T04:18:55.732Z,78.30
2023-04-16T04:21:23.091Z,78.30
2023-04-16T04:23:50.462Z,78.30
2023-04-16T04:26:17.694Z,78.30
2023-04-16T04:28:44.860Z,78.30
2023-04-16T04:31:12.044Z,78.30
2023-04-16T04:33:39.172Z,78.30
2023-04-16T04:36:07.050Z,78.20
2023-04-16T04:38:34.233Z,78.20
2023-04-16T04:41:01.534Z,78.30
2023-04-16T04:43:28.627Z,78.30
2023-04-16T04:45:56.058Z,78.30
2023-04-16T04:48:26.792Z,78.30
2023-04-16T04:50:54.072Z,78.30
2023-04-16T04:53:21.160Z,78.30
2023-04-16T04:55:52.123Z,78.20
2023-04-16T04:58:21.107Z,78.30
2023-04-16T05:00:48.188Z,78.20
2023-04-16T05:03:23.813Z,78.30
2023-04-16T05:05:50.936Z,78.30
2023-04-16T05:08:18.015Z,78.30
2023-04-16T05:10:45.353Z,78.30
2023-04-16T05:13:12.481Z,78.40
2023-04-16T05:15:39.629Z,78.40
2023-04-16T05:18:06.766Z,78.40
2023-04-16T05:20:33.882Z,78.40
2023-04-16T05:23:01.023Z,78.40
2023-04-16T05:25:28.091Z,78.40
2023-04-16T05:27:55.215Z,78.40
2023-04-16T05:30:22.741Z,78.40
2023-04-16T05:32:49.934Z,78.40
2023-04-16T05:35:17.621Z,78.40
2023-04-16T05:37:45.007Z,78.30
2023-04-16T05:40:14.206Z,78.40
2023-04-16T05:42:41.485Z,78.40
2023-04-16T05:45:09.396Z,78.40
2023-04-16T05:47:36.476Z,78.50
2023-04-16T05:50:03.645Z,78.50
2023-04-16T05:52:30.873Z,78.60
2023-04-16T05:55:01.677Z,78.60
2023-04-16T05:57:30.529Z,78.80
2023-04-16T05:59:57.597Z,78.70
2023-04-16T06:02:24.897Z,78.50
2023-04-16T06:04:52.084Z,78.60
2023-04-16T06:07:19.158Z,78.60
2023-04-16T06:09:46.311Z,78.70
2023-04-16T06:12:13.401Z,78.70
2023-04-16T06:14:40.545Z,78.70
2023-04-16T06:17:07.620Z,78.70
2023-04-16T06:19:34.789Z,78.70
2023-04-16T06:22:01.979Z,78.80
2023-04-16T06:24:29.172Z,78.90
2023-04-16T06:26:57.566Z,78.90
2023-04-16T06:29:37.015Z,79.00
2023-04-16T06:32:07.934Z,79.00
2023-04-16T06:34:35.077Z,79.00
2023-04-16T06:37:03.581Z,79.00
2023-04-16T06:39:31.095Z,79.00
2023-04-16T06:41:58.379Z,78.80
2023-04-16T06:44:25.438Z,78.70
2023-04-16T06:46:53.513Z,78.80
2023-04-16T06:49:21.966Z,78.80
2023-04-16T06:51:49.103Z,78.70
2023-04-16T06:54:16.918Z,78.50
2023-04-16T06:56:44.044Z,78.50
2023-04-16T06:59:11.579Z,78.40
2023-04-16T07:01:38.798Z,78.20
2023-04-16T07:04:06.128Z,78.10
2023-04-16T07:06:33.364Z,77.90
2023-04-16T07:09:00.415Z,78.00
2023-04-16T07:11:27.591Z,78.10
2023-04-16T07:13:54.691Z,78.00
2023-04-16T07:16:21.852Z,78.00
2023-04-16T07:18:49.010Z,78.00
2023-04-16T07:21:16.198Z,78.00
2023-04-16T07:23:43.675Z,78.00
2023-04-16T07:26:11.761Z,78.10
2023-04-16T07:28:41.111Z,78.10
2023-04-16T07:31:08.772Z,78.00
2023-04-16T07:33:35.921Z,78.00
2023-04-16T07:36:02.951Z,78.00
2023-04-16T07:38:30.109Z,77.90
2023-04-16T07:40:57.287Z,77.90
2023-04-16T07:43:24.378Z,78.00
2023-04-16T07:45:51.792Z,77.90
2023-04-16T07:48:19.103Z,77.90
2023-04-16T07:50:46.304Z,78.00
2023-04-16T07:53:14.565Z,78.20
2023-04-16T07:55:41.782Z,78.20
2023-04-16T07:58:09.835Z,78.10
2023-04-16T08:00:37.356Z,78.00
2023-04-16T08:03:04.845Z,78.00
2023-04-16T08:05:32.091Z,78.00
2023-04-16T08:07:59.264Z,78.20
2023-04-16T08:10:26.398Z,78.10
2023-04-16T08:12:53.962Z,78.20
2023-04-16T08:15:21.260Z,78.20
2023-04-16T08:17:48.617Z,78.40
2023-04-16T08:20:17.775Z,78.40
2023-04-16T08:22:46.634Z,78.50
2023-04-16T08:25:14.422Z,78.70
2023-04-16T08:27:41.564Z,78.80
2023-04-16T08:30:08.889Z,78.70
2023-04-16T08:32:36.116Z,78.60
2023-04-16T08:35:03.432Z,78.40
2023-04-16T08:37:30.551Z,78.10
2023-04-16T08:39:57.687Z,78.00
2023-04-16T08:42:37.108Z,78.10
2023-04-16T08:45:10.941Z,78.10
2023-04-16T08:47:38.213Z,77.80
2023-04-16T08:50:06.380Z,77.50
2023-04-16T08:52:38.393Z,77.30
2023-04-16T08:55:12.625Z,77.00
2023-04-16T08:58:04.760Z,76.90
2023-04-16T09:00:32.064Z,76.80
2023-04-16T09:03:00.107Z,76.40
2023-04-16T09:05:29.601Z,76.40
2023-04-16T09:07:56.830Z,76.30
2023-04-16T09:10:26.332Z,76.60
2023-04-16T09:12:57.473Z,76.80
2023-04-16T09:15:25.974Z,76.90
2023-04-16T09:17:54.017Z,77.00
2023-04-16T09:20:21.315Z,76.90
2023-04-16T09:22:48.690Z,77.00
2023-04-16T09:25:16.413Z,76.90
2023-04-16T09:27:44.149Z,76.80
2023-04-16T09:30:26.245Z,76.70
2023-04-16T09:33:17.750Z,76.40
2023-04-16T09:35:51.025Z,76.60
2023-04-16T09:38:19.812Z,76.60
2023-04-16T09:40:47.763Z,76.60
2023-04-16T09:43:19.170Z,76.90
2023-04-16T09:45:55.544Z,76.90
2023-04-16T09:48:33.034Z,76.60
2023-04-16T09:51:01.472Z,76.50
2023-04-16T09:53:32.681Z,76.60
2023-04-16T09:56:06.698Z,76.40
2023-04-16T09:58:37.360Z,76.50
2023-04-16T10:01:12.847Z,76.50
2023-04-16T10:03:41.312Z,76.50
2023-04-16T10:06:15.356Z,76.80
2023-04-16T10:08:50.733Z,76.60
2023-04-16T10:11:19.219Z,76.30
2023-04-16T10:13:46.694Z,76.20
2023-04-16T10:16:14.090Z,76.00
2023-04-16T10:18:47.095Z,75.80
2023-04-16T10:21:16.522Z,75.40
2023-04-16T10:23:44.278Z,75.20
2023-04-16T10:26:11.510Z,75.10
2023-04-16T10:28:39.339Z,74.90
2023-04-16T10:31:09.145Z,74.40
2023-04-16T10:33:40.871Z,74.20
2023-04-16T10:36:26.460Z,74.20
2023-04-16T10:38:58.949Z,74.50
2023-04-16T10:41:27.563Z,74.50
2023-04-16T10:44:12.552Z,74.40
2023-04-16T10:46:42.645Z,74.40
2023-04-16T10:49:16.383Z,74.40
2023-04-16T10:51:53.505Z,74.00
2023-04-16T10:54:41.165Z,74.20
2023-04-16T10:57:18.034Z,73.80
2023-04-16T10:59:46.209Z,74.60
2023-04-16T11:02:18.943Z,74.90
2023-04-16T11:04:48.999Z,74.50
2023-04-16T11:07:32.663Z,74.60
2023-04-16T11:10:13.518Z,74.70
2023-04-16T11:12:51.513Z,74.00
2023-04-16T11:15:23.561Z,74.20
2023-04-16T11:17:52.808Z,74.70
2023-04-16T11:20:25.882Z,74.90
2023-04-16T11:22:58.408Z,75.20
2023-04-16T11:25:31.212Z,75.10
2023-04-16T11:28:01.629Z,74.90
2023-04-16T11:30:33.947Z,75.20
2023-04-16T11:33:11.708Z,74.80
2023-04-16T11:35:40.287Z,75.40
2023-04-16T11:38:07.744Z,75.10
2023-04-16T11:40:36.383Z,74.70
2023-04-16T11:43:17.510Z,73.50
2023-04-16T11:46:16.198Z,73.20
2023-04-16T11:48:59.550Z,71.70
2023-04-16T11:51:26.760Z,72.30
2023-04-16T11:53:54.569Z,72.60
2023-04-16T11:56:34.257Z,72.50
2023-04-16T11:59:11.797Z,71.60
2023-04-16T12:01:42.416Z,71.40
2023-04-16T12:04:09.805Z,72.10
2023-04-16T12:06:37.345Z,72.30
2023-04-16T12:09:25.646Z,72.50
2023-04-16T12:11:53.427Z,70.30
2023-04-16T12:14:21.861Z,71.20
2023-04-16T12:16:49.282Z,71.20
2023-04-16T12:19:16.732Z,70.90
2023-04-16T12:21:49.821Z,70.80
2023-04-16T12:24:24.249Z,71.10
2023-04-16T12:27:03.341Z,71.00
2023-04-16T12:29:30.562Z,69.90
2023-04-16T12:31:58.004Z,69.10
2023-04-16T12:34:28.937Z,69.30
2023-04-16T12:37:13.030Z,69.40
2023-04-16T12:39:40.676Z,68.90
2023-04-16T12:42:09.972Z,68.90
2023-04-16T12:44:37.144Z,69.10
2023-04-16T12:47:05.694Z,69.10
2023-04-16T12:49:33.030Z,69.00
2023-04-16T12:52:00.321Z,68.30
2023-04-16T12:54:29.891Z,68.50
2023-04-16T12:56:57.710Z,68.30
2023-04-16T12:59:25.338Z,67.30
2023-04-16T13:01:52.946Z,67.70
2023-04-16T13:04:22.023Z,67.80
2023-04-16T13:06:50.961Z,66.80
2023-04-16T13:09:20.441Z,67.70
2023-04-16T13:11:47.614Z,66.90
2023-04-16T13:14:14.845Z,66.90
2023-04-16T13:16:42.012Z,67.00
2023-04-16T13:19:09.413Z,67.50
2023-04-16T13:21:36.918Z,67.50
2023-04-16T13:24:04.447Z,67.70
2023-04-16T13:26:31.785Z,68.00
2023-04-16T13:28:58.942Z,67.90
2023-04-16T13:31:26.830Z,67.70
2023-04-16T13:33:57.060Z,67.50
2023-04-16T13:36:26.279Z,66.70
2023-04-16T13:38:54.833Z,67.40
2023-04-16T13:41:24.714Z,67.70
2023-04-16T13:43:59.395Z,67.80
2023-04-16T13:46:27.298Z,67.10
2023-04-16T13:48:54.663Z,66.90
2023-04-16T13:51:22.731Z,66.60
2023-04-16T13:53:49.920Z,66.40
2023-04-16T13:56:18.604Z,66.40
2023-04-16T13:58:45.843Z,65.80
2023-04-16T14:01:13.214Z,66.00
2023-04-16T14:03:41.058Z,66.30
2023-04-16T14:06:08.419Z,66.10
2023-04-16T14:08:39.258Z,65.80
2023-04-16T14:11:06.899Z,65.80
2023-04-16T14:13:34.443Z,66.30
2023-04-16T14:16:02.745Z,66.40
2023-04-16T14:19:16.396Z,66.30
2023-04-16T14:21:51.786Z,64.90
2023-04-16T14:24:22.263Z,65.90
2023-04-16T14:26:49.485Z,65.60
2023-04-16T14:29:16.761Z,65.40
2023-04-16T14:31:43.946Z,65.20
2023-04-16T14:34:11.459Z,65.40
2023-04-16T14:36:38.798Z,65.50
2023-04-16T14:39:12.985Z,65.80
2023-04-16T14:41:40.499Z,65.90
2023-04-16T14:44:08.482Z,65.60
2023-04-16T14:46:36.212Z,65.20
2023-04-16T14:49:03.643Z,65.70
2023-04-16T14:51:31.938Z,65.90
2023-04-16T14:53:59.119Z,65.70
2023-04-16T14:56:26.318Z,65.90
2023-04-16T14:58:53.458Z,66.10
2023-04-16T15:01:20.684Z,65.70
2023-04-16T15:03:48.089Z,66.00
2023-04-16T15:06:16.705Z,66.20
2023-04-16T15:08:43.989Z,65.80
2023-04-16T15:11:11.299Z,65.90
2023-04-16T15:13:38.339Z,66.00
2023-04-16T15:16:06.092Z,66.10
2023-04-16T15:18:33.960Z,65.70
2023-04-16T15:21:01.093Z,65.10
2023-04-16T15:23:28.321Z,65.50
2023-04-16T15:25:55.539Z,65.80
2023-04-16T15:28:22.808Z,65.80
2023-04-16T15:30:50.252Z,65.70
2023-04-16T15:33:17.441Z,65.50
2023-04-16T15:35:44.571Z,65.60
2023-04-16T15:38:11.636Z,65.50
2023-04-16T15:40:38.876Z,65.40
2023-04-16T15:43:07.320Z,65.00
2023-04-16T15:45:34.783Z,65.00
2023-04-16T15:48:02.044Z,64.60
2023-04-16T15:50:29.298Z,64.60
2023-04-16T15:52:56.728Z,64.30
2023-04-16T15:55:23.881Z,63.90
2023-04-16T15:57:51.504Z,63.90
2023-04-16T16:00:19.024Z,64.00
2023-04-16T16:02:47.661Z,64.20
2023-04-16T16:05:16.066Z,64.20
2023-04-16T16:07:43.782Z,64.20
2023-04-16T16:10:13.490Z,64.20
2023-04-16T16:12:41.642Z,64.70
2023-04-16T16:15:11.207Z,64.90
2023-04-16T16:17:39.292Z,64.80
2023-04-16T16:20:10.179Z,65.10
2023-04-16T16:22:38.451Z,65.10
2023-04-16T16:25:07.050Z,64.70
2023-04-16T16:27:34.374Z,64.70
2023-04-16T16:30:01.843Z,65.10
2023-04-16T16:32:29.097Z,65.60
2023-04-16T16:34:56.362Z,65.90
2023-04-16T16:37:23.580Z,66.00
2023-04-16T16:39:50.886Z,66.00
2023-04-16T16:42:19.070Z,65.90
2023-04-16T16:44:47.758Z,65.90
2023-04-16T16:47:15.036Z,66.00
2023-04-16T16:49:42.170Z,66.00
2023-04-16T16:52:09.292Z,66.10
2023-04-16T16:54:36.451Z,66.20
2023-04-16T16:57:03.731Z,66.30
2023-04-16T16:59:31.105Z,66.40
2023-04-16T17:01:58.458Z,66.50
2023-04-16T17:04:25.774Z,66.60
2023-04-16T17:06:52.921Z,66.60
2023-04-16T17:09:20.335Z,66.70
2023-04-16T17:11:47.573Z,66.90
2023-04-16T17:14:14.779Z,66.90
2023-04-16T17:16:41.905Z,67.00
2023-04-16T17:19:09.483Z,67.00
2023-04-16T17:21:36.758Z,67.10
2023-04-16T17:24:04.098Z,67.20
2023-04-16T17:26:31.970Z,67.30
2023-04-16T17:28:59.531Z,67.20
2023-04-16T17:31:27.966Z,67.30
2023-04-16T17:33:55.135Z,67.30
2023-04-16T17:36:23.303Z,67.50
2023-04-16T17:38:50.734Z,67.50
2023-04-16T17:41:17.911Z,67.50
2023-04-16T17:43:49.692Z,67.70
2023-04-16T17:46:17.304Z,67.70
2023-04-16T17:48:44.495Z,67.60
2023-04-16T17:51:16.748Z,67.60
2023-04-16T17:53:44.826Z,67.60
2023-04-16T17:56:13.304Z,67.60
2023-04-16T17:58:40.830Z,67.60
2023-04-16T18:01:07.985Z,67.70
2023-04-16T18:03:35.751Z,67.70
2023-04-16T18:06:03.702Z,67.70
2023-04-16T18:08:31.049Z,67.80
2023-04-16T18:10:58.098Z,67.80
2023-04-16T18:13:25.559Z,67.80
2023-04-16T18:15:53.113Z,67.90
2023-04-16T18:18:21.379Z,67.90
2023-04-16T18:20:48.541Z,67.90
2023-04-16T18:23:15.800Z,67.90
2023-04-16T18:25:42.851Z,68.00
2023-04-16T18:28:09.973Z,68.00
2023-04-16T18:30:40.453Z,68.00
2023-04-16T18:33:34.394Z,68.10
2023-04-16T18:35:54.888Z,68.10
2023-04-16T18:38:21.999Z,68.10
2023-04-16T18:40:49.830Z,68.30
2023-04-16T18:43:17.154Z,68.30
2023-04-16T18:45:44.236Z,68.30
2023-04-16T18:48:11.509Z,68.30
2023-04-16T18:50:38.572Z,68.30
2023-04-16T18:53:05.720Z,68.20
2023-04-16T18:55:32.892Z,68.20
2023-04-16T18:58:00.125Z,68.20
2023-04-16T19:00:27.532Z,68.20
2023-04-16T19:02:54.743Z,68.20
2023-04-16T19:05:23.093Z,68.20
2023-04-16T19:07:57.941Z,68.30
2023-04-16T19:10:25.139Z,68.40
2023-04-16T19:12:52.455Z,68.40
2023-04-16T19:15:19.571Z,68.40
2023-04-16T19:17:47.726Z,68.50
2023-04-16T19:20:15.410Z,68.50
2023-04-16T19:22:42.491Z,68.50
2023-04-16T19:25:10.251Z,68.60
2023-04-16T19:27:37.299Z,68.80
2023-04-16T19:30:06.429Z,68.80
2023-04-16T19:32:33.910Z,68.90
2023-04-16T19:35:00.988Z,69.00
2023-04-16T19:37:28.303Z,69.10
2023-04-16T19:39:55.607Z,69.20
2023-04-16T19:42:22.702Z,69.30
2023-04-16T19:44:49.795Z,69.40
2023-04-16T19:47:16.978Z,69.60
2023-04-16T19:49:44.186Z,69.70
2023-04-16T19:52:11.307Z,69.90
2023-04-16T19:54:38.390Z,69.90
2023-04-16T19:57:05.519Z,70.00
2023-04-16T19:59:33.230Z,70.20
2023-04-16T20:02:00.456Z,70.30
2023-04-16T20:04:27.650Z,70.40
2023-04-16T20:06:54.749Z,70.50
2023-04-16T20:09:21.879Z,70.60
2023-04-16T20:11:49.782Z,70.70
2023-04-16T20:14:17.317Z,70.80
2023-04-16T20:16:44.451Z,70.90
2023-04-16T20:19:17.211Z,71.00
2023-04-16T20:21:45.612Z,71.00
2023-04-16T20:24:12.815Z,71.10
2023-04-16T20:26:40.013Z,71.10
2023-04-16T20:29:07.187Z,71.20
2023-04-16T20:31:34.419Z,71.20
2023-04-16T20:34:01.501Z,71.20
2023-04-16T20:36:28.942Z,71.30
2023-04-16T20:38:55.981Z,71.30
2023-04-16T20:41:25.329Z,71.30
2023-04-16T20:43:53.069Z,71.40
2023-04-16T20:46:24.431Z,71.40
2023-04-16T20:48:52.144Z,71.50
2023-04-16T20:51:19.427Z,71.50
2023-04-16T20:53:46.563Z,71.50
2023-04-16T20:56:15.087Z,71.60
2023-04-16T20:58:42.879Z,71.60
2023-04-16T21:01:10.171Z,71.70
2023-04-16T21:03:37.685Z,71.80
2023-04-16T21:06:05.125Z,71.80
2023-04-16T21:08:32.418Z,71.80
2023-04-16T21:10:59.512Z,71.80
2023-04-16T21:13:26.729Z,71.80
2023-04-16T21:15:53.853Z,71.70
2023-04-16T21:18:21.028Z,71.70
2023-04-16T21:20:48.192Z,71.60
2023-04-16T21:23:15.645Z,71.50
2023-04-16T21:25:42.789Z,71.50
2023-04-16T21:28:09.936Z,71.50
2023-04-16T21:30:37.324Z,71.50
2023-04-16T21:33:04.633Z,71.60
2023-04-16T21:35:33.259Z,71.70
2023-04-16T21:38:00.379Z,71.70
2023-04-16T21:40:27.545Z,71.70
2023-04-16T21:42:55.270Z,71.70
2023-04-16T21:45:22.903Z,71.70
2023-04-16T21:47:50.173Z,71.80
2023-04-16T21:50:17.331Z,71.90
2023-04-16T21:52:46.800Z,72.00
2023-04-16T21:55:16.861Z,72.10
2023-04-16T21:57:43.943Z,72.30
2023-04-16T22:00:14.573Z,72.40
2023-04-16T22:02:43.122Z,72.60
2023-04-16T22:05:11.453Z,72.70
2023-04-16T22:07:39.038Z,72.80
2023-04-16T22:10:08.800Z,72.90
2023-04-16T22:12:39.915Z,72.90
2023-04-16T22:15:09.224Z,73.00
2023-04-16T22:17:36.707Z,73.00
2023-04-16T22:20:09.468Z,73.00
2023-04-16T22:22:36.664Z,73.10
2023-04-16T22:25:04.165Z,73.10
2023-04-16T22:27:31.461Z,73.20
2023-04-16T22:29:58.560Z,73.20
2023-04-16T22:32:25.774Z,73.20
2023-04-16T22:34:53.155Z,73.20
2023-04-16T22:37:20.470Z,73.20
2023-04-16T22:39:47.552Z,73.20
2023-04-16T22:42:14.672Z,73.20
2023-04-16T22:44:41.857Z,73.20
2023-04-16T22:47:09.010Z,73.20
2023-04-16T22:49:36.339Z,73.20
2023-04-16T22:52:03.515Z,73.20
2023-04-16T22:54:31.492Z,73.20
2023-04-16T22:56:59.092Z,73.20
2023-04-16T22:59:26.467Z,73.30
2023-04-16T23:01:53.718Z,73.30
2023-04-16T23:04:21.064Z,73.30
2023-04-16T23:06:48.618Z,73.30
2023-04-16T23:09:15.860Z,73.30
2023-04-16T23:11:43.087Z,73.30
2023-04-16T23:14:10.227Z,73.30
2023-04-16T23:16:37.330Z,73.30
2023-04-16T23:19:04.516Z,73.30
2023-04-16T23:21:32.543Z,73.30
2023-04-16T23:23:59.723Z,73.20
2023-04-16T23:26:26.949Z,73.20
2023-04-16T23:28:54.074Z,73.20
2023-04-16T23:31:21.197Z,73.30
2023-04-16T23:33:48.324Z,73.30
2023-04-16T23:36:15.391Z,73.20
2023-04-16T23:38:42.623Z,73.20
2023-04-16T23:41:09.921Z,73.20
2023-04-16T23:43:40.082Z,73.20
2023-04-16T23:46:07.952Z,73.20
2023-04-16T23:48:35.149Z,73.20
2023-04-16T23:51:02.431Z,73.20
2023-04-16T23:53:29.539Z,73.30
2023-04-16T23:55:56.645Z,73.20
2023-04-16T23:58:23.823Z,73.30
